Details for EasyJet at LFPG




Go Back


Latest METAR
Local Time

LFPG 241330Z 06017KT CAVOK 04/M06 Q1016 NOSIG

24/02/2018, 14:45:11

Description
Results
EasyJet Logo
Number of Pilots based at LFPG
0 Pilots Based here
Number of EasyJet Flights Departed from LFPG
8 Flights Departed
Number of EasyJet Flights Arrived at LFPG
3 Flights Arrived
Number of EasyJet Schedules Departing from LFPG
133 Schedules
Number of EasyJet Schedules Arriving at LFPG
132 Schedules
Number of EasyJet Schedules Departing from LFPG availible today
42 Schedules Today
Number of EasyJet Schedules Arriving at LFPG availible today
42 Schedules Today
Average Landing Rate at LFPG
-225 fpm
EasyJet Average Landing Rate at LFPG
-106 fpm
Total Fuel Purchased at LFPG by EasyJet
25,279.16 kgs / 55,730.44 lbs

Pilots Based at LFPG


Pilot ID
Pilot Name
Pilot Rank
No. of Flights
No. of Flying Hours
There are no pilots assigned to this hub!   Will you be the first?
Content